Time;durP1;ratioP1;P1;durP2;ratioP2;P2;SDS_P1;SDS_P2;PMS_P1;PMS_P2;Temp;Humidity;BMP_temperature;BMP_pressure;BME280_temperature;BME280_humidity;BME280_pressure;Samples;Min_cycle;Max_cycle;Signal;HPM_P1;HPM_P2
2023/08/06 00:01:16;;;;;;;0.20;0.10;;;15.20;99.90;;;;;;5076403;28;20439;-65
2023/08/06 00:03:41;;;;;;;1.10;0.10;;;15.20;99.90;;;;;;5074838;28;20027;-65
2023/08/06 00:06:07;;;;;;;0.47;0.10;;;15.20;99.90;;;;;;5075813;28;20027;-66
2023/08/06 00:08:33;;;;;;;0.10;0.10;;;15.20;99.90;;;;;;5074678;28;20119;-65
2023/08/06 00:10:58;;;;;;;0.10;0.10;;;15.20;99.90;;;;;;5075915;28;20032;-65
2023/08/06 00:13:24;;;;;;;0.20;0.20;;;15.20;99.90;;;;;;5076187;28;20021;-65
2023/08/06 00:15:49;;;;;;;0.45;0.20;;;15.20;99.90;;;;;;5075864;28;20024;-65
2023/08/06 00:18:15;;;;;;;2.55;0.47;;;15.20;99.90;;;;;;5075676;28;20035;-65
2023/08/06 00:20:41;;;;;;;0.28;0.10;;;15.20;99.90;;;;;;5074985;28;20036;-65
2023/08/06 00:23:07;;;;;;;0.22;0.10;;;15.10;99.90;;;;;;5075622;28;20051;-65
2023/08/06 00:25:33;;;;;;;0.47;0.20;;;15.10;99.90;;;;;;5074498;28;20025;-65
2023/08/06 00:27:59;;;;;;;0.90;0.20;;;15.10;99.90;;;;;;5075622;28;20441;-65
2023/08/06 00:30:24;;;;;;;0.10;0.10;;;15.10;99.90;;;;;;5075596;28;20036;-65
2023/08/06 00:32:50;;;;;;;0.20;0.20;;;15.10;99.90;;;;;;5075141;28;20109;-65
2023/08/06 00:35:16;;;;;;;0.30;0.22;;;15.10;99.90;;;;;;5075406;28;20028;-65
2023/08/06 00:37:41;;;;;;;0.30;0.30;;;15.10;99.90;;;;;;5075357;28;20021;-65
2023/08/06 00:40:08;;;;;;;0.77;0.20;;;15.10;99.90;;;;;;5075206;28;20104;-65
2023/08/06 00:42:34;;;;;;;0.20;0.20;;;15.10;99.90;;;;;;5075661;28;20033;-65
2023/08/06 00:45:00;;;;;;;0.20;0.10;;;15.10;99.90;;;;;;5074903;28;20519;-65
2023/08/06 00:47:26;;;;;;;0.10;0.10;;;15.10;99.90;;;;;;5075186;28;20050;-65
2023/08/06 00:49:52;;;;;;;0.10;0.10;;;15.10;99.90;;;;;;5074868;28;20028;-65
2023/08/06 00:52:17;;;;;;;0.10;0.10;;;15.10;99.90;;;;;;5074781;28;20025;-65
2023/08/06 00:54:43;;;;;;;0.10;0.10;;;15.10;99.90;;;;;;5074741;28;20029;-65
2023/08/06 00:57:09;;;;;;;0.15;0.10;;;15.00;99.90;;;;;;5073723;28;20123;-65
2023/08/06 00:59:35;;;;;;;0.17;0.10;;;15.10;99.90;;;;;;5075274;28;20032;-65
2023/08/06 01:02:01;;;;;;;1.85;0.10;;;15.00;99.90;;;;;;5075021;28;20020;-65
2023/08/06 01:04:27;;;;;;;0.00;0.00;;;15.00;99.90;;;;;;5075229;28;20066;-65
2023/08/06 01:07:21;;;;;;;0.10;0.10;;;15.00;99.90;;;;;;5074842;28;20117;-65
2023/08/06 01:10:11;;;;;;;0.30;0.10;;;15.00;99.90;;;;;;5075151;28;20055;-65
2023/08/06 01:13:02;;;;;;;0.10;0.10;;;15.00;99.90;;;;;;5074961;28;20032;-64
2023/08/06 01:15:32;;;;;;;1.25;0.68;;;15.00;99.90;;;;;;5074734;28;20070;-64
2023/08/06 01:17:59;;;;;;;0.10;0.10;;;14.90;99.90;;;;;;5074734;28;20035;-64
2023/08/06 01:20:29;;;;;;;1.35;0.10;;;14.90;99.90;;;;;;5074215;28;20470;-64
2023/08/06 01:22:55;;;;;;;0.88;0.35;;;14.90;99.90;;;;;;5074551;28;20080;-64
2023/08/06 01:25:21;;;;;;;0.52;0.20;;;14.90;99.90;;;;;;5074303;28;20453;-64
2023/08/06 01:27:49;;;;;;;0.22;0.20;;;14.90;99.90;;;;;;5074106;28;20052;-64
2023/08/06 01:30:25;;;;;;;1.50;0.47;;;14.90;99.90;;;;;;5074611;28;20032;-65
2023/08/06 01:32:56;;;;;;;0.40;0.30;;;14.90;99.90;;;;;;5074154;28;20055;-65
2023/08/06 01:35:22;;;;;;;1.33;0.30;;;14.90;99.90;;;;;;5074353;28;20020;-64
2023/08/06 01:37:48;;;;;;;1.23;0.30;;;14.90;99.90;;;;;;5074389;28;20028;-65
2023/08/06 01:40:14;;;;;;;0.40;0.40;;;14.90;99.90;;;;;;5074186;28;20037;-65
2023/08/06 01:42:40;;;;;;;0.55;0.52;;;14.90;99.90;;;;;;5073967;28;20033;-65
2023/08/06 01:45:07;;;;;;;0.40;0.40;;;14.90;99.90;;;;;;5075378;28;20029;-66
2023/08/06 01:47:33;;;;;;;0.40;0.40;;;14.90;99.90;;;;;;5076423;28;20035;-65
2023/08/06 01:49:59;;;;;;;0.68;0.68;;;14.90;99.90;;;;;;5076052;28;20029;-65
2023/08/06 01:52:24;;;;;;;0.85;0.55;;;14.90;99.90;;;;;;5075479;28;20020;-65
2023/08/06 01:54:50;;;;;;;0.85;0.52;;;14.80;99.90;;;;;;5074741;28;20024;-66
2023/08/06 01:57:16;;;;;;;0.55;0.55;;;14.90;99.90;;;;;;5073893;28;20025;-65
2023/08/06 01:59:41;;;;;;;0.75;0.63;;;14.80;99.90;;;;;;5073882;28;20028;-65
2023/08/06 02:02:07;;;;;;;1.02;0.80;;;14.80;99.90;;;;;;5073603;28;20021;-64
2023/08/06 02:04:32;;;;;;;0.60;0.57;;;14.80;99.90;;;;;;5074052;28;20025;-65
2023/08/06 02:06:58;;;;;;;0.73;0.73;;;14.80;99.90;;;;;;5073843;28;20020;-65
2023/08/06 02:09:24;;;;;;;0.60;0.60;;;14.80;99.90;;;;;;5073829;28;20028;-64
2023/08/06 02:11:49;;;;;;;0.85;0.80;;;14.80;99.90;;;;;;5073860;28;20167;-65
2023/08/06 02:14:15;;;;;;;1.77;0.77;;;14.80;99.90;;;;;;5073784;28;20083;-65
2023/08/06 02:16:41;;;;;;;1.15;0.70;;;14.80;99.90;;;;;;5073695;28;20027;-65
2023/08/06 02:19:06;;;;;;;1.00;1.00;;;14.80;99.90;;;;;;5072402;28;20466;-65
2023/08/06 02:21:32;;;;;;;0.95;0.88;;;14.80;99.90;;;;;;5073754;28;20025;-65
2023/08/06 02:23:57;;;;;;;3.60;1.15;;;14.80;99.90;;;;;;5073576;28;20056;-65
2023/08/06 02:26:23;;;;;;;0.95;0.88;;;14.80;99.90;;;;;;5073700;28;20029;-65
2023/08/06 02:28:49;;;;;;;2.67;1.33;;;14.80;99.90;;;;;;5073707;28;20192;-66
2023/08/06 02:31:14;;;;;;;1.20;1.10;;;14.80;99.90;;;;;;5073261;28;20024;-64
2023/08/06 02:33:40;;;;;;;0.80;0.80;;;14.80;99.90;;;;;;5073586;28;20029;-64
2023/08/06 02:36:05;;;;;;;1.25;1.13;;;14.80;99.90;;;;;;5073604;28;20060;-65
2023/08/06 02:38:32;;;;;;;1.40;1.27;;;14.80;99.90;;;;;;5073508;28;20436;-65
2023/08/06 02:40:58;;;;;;;1.85;1.17;;;14.80;99.90;;;;;;5073276;28;20040;-65
2023/08/06 02:43:23;;;;;;;0.98;0.98;;;14.80;99.90;;;;;;5076637;28;20099;-65
2023/08/06 02:45:49;;;;;;;1.17;1.17;;;14.80;99.90;;;;;;5077733;28;20032;-65
2023/08/06 02:48:15;;;;;;;1.25;1.15;;;14.80;99.90;;;;;;5077405;28;20051;-65
2023/08/06 02:50:41;;;;;;;1.13;1.13;;;14.80;99.90;;;;;;5077649;28;20377;-65
2023/08/06 02:53:09;;;;;;;1.10;1.10;;;14.80;99.90;;;;;;5077367;28;20021;-65
2023/08/06 02:55:35;;;;;;;1.50;1.20;;;14.90;99.90;;;;;;5077304;28;20032;-65
2023/08/06 02:58:02;;;;;;;3.50;1.17;;;14.80;99.90;;;;;;5077105;28;20033;-65
2023/08/06 03:00:27;;;;;;;1.40;1.40;;;14.90;99.90;;;;;;5077111;28;20040;-65
2023/08/06 03:02:53;;;;;;;1.38;1.38;;;14.90;99.90;;;;;;5077057;28;20444;-65
2023/08/06 03:05:19;;;;;;;1.30;1.30;;;14.90;99.90;;;;;;5077112;28;20028;-65
2023/08/06 03:07:45;;;;;;;1.40;1.38;;;14.90;99.90;;;;;;5075769;28;20458;-66
2023/08/06 03:10:11;;;;;;;1.90;1.80;;;14.90;99.90;;;;;;5077324;28;20024;-66
2023/08/06 03:12:36;;;;;;;1.63;1.45;;;15.00;99.90;;;;;;5076920;28;20025;-65
2023/08/06 03:15:02;;;;;;;2.22;1.77;;;15.00;99.90;;;;;;5076587;28;20032;-66
2023/08/06 03:17:28;;;;;;;2.35;2.13;;;15.00;99.90;;;;;;5076903;28;20039;-66
2023/08/06 03:19:53;;;;;;;2.00;1.90;;;15.10;99.90;;;;;;5075536;28;20033;-66
2023/08/06 03:22:19;;;;;;;1.88;1.77;;;15.10;99.90;;;;;;5075757;28;20429;-66
2023/08/06 03:24:44;;;;;;;2.30;2.20;;;15.10;99.90;;;;;;5076404;28;20060;-66
2023/08/06 03:27:10;;;;;;;2.50;2.30;;;15.10;99.90;;;;;;5076773;28;20493;-66
2023/08/06 03:29:35;;;;;;;3.05;2.10;;;15.10;99.90;;;;;;5076925;28;20036;-66
2023/08/06 03:32:01;;;;;;;2.75;2.30;;;15.10;99.90;;;;;;5076326;28;20021;-66
2023/08/06 03:34:27;;;;;;;3.20;2.45;;;15.20;99.90;;;;;;5075629;28;20112;-66
2023/08/06 03:36:52;;;;;;;3.58;2.90;;;15.20;99.90;;;;;;5076567;28;20052;-66
2023/08/06 03:39:18;;;;;;;2.30;2.13;;;15.10;99.90;;;;;;5076379;28;20116;-66
2023/08/06 03:41:43;;;;;;;2.28;2.15;;;15.20;99.90;;;;;;5076657;28;20021;-66
2023/08/06 03:44:09;;;;;;;4.07;2.67;;;15.20;99.90;;;;;;5076422;28;20090;-66
2023/08/06 03:46:35;;;;;;;2.42;2.22;;;15.20;99.90;;;;;;5076410;28;20029;-66
2023/08/06 03:49:00;;;;;;;2.28;2.08;;;15.20;99.90;;;;;;5076229;28;20035;-66
2023/08/06 03:51:26;;;;;;;2.60;2.40;;;15.30;99.90;;;;;;5076360;28;20021;-66
2023/08/06 03:53:52;;;;;;;2.85;2.65;;;15.30;99.90;;;;;;5075235;28;20074;-66
2023/08/06 03:56:17;;;;;;;2.85;2.65;;;15.30;99.90;;;;;;5076349;28;20020;-66
2023/08/06 03:58:43;;;;;;;2.95;2.75;;;15.30;99.90;;;;;;5074956;28;20024;-66
2023/08/06 04:01:09;;;;;;;2.85;2.65;;;15.20;99.90;;;;;;5076045;28;20036;-66
2023/08/06 04:03:34;;;;;;;3.55;3.25;;;15.30;99.90;;;;;;5076079;28;20029;-66
2023/08/06 04:06:04;;;;;;;2.97;2.78;;;15.30;99.90;;;;;;5075968;28;20102;-66
2023/08/06 04:08:30;;;;;;;3.05;2.85;;;15.30;99.90;;;;;;5075283;28;20366;-66
2023/08/06 04:10:56;;;;;;;3.05;2.75;;;15.30;99.90;;;;;;5075649;28;20024;-66
2023/08/06 04:13:21;;;;;;;3.88;2.65;;;15.30;99.90;;;;;;5075652;28;20031;-66
2023/08/06 04:15:47;;;;;;;3.53;2.70;;;15.30;99.90;;;;;;5075824;28;20030;-66
2023/08/06 04:18:13;;;;;;;3.03;2.75;;;15.30;99.90;;;;;;5075907;28;20032;-66
2023/08/06 04:20:46;;;;;;;2.72;2.53;;;15.20;99.90;;;;;;5075349;28;20050;-66
2023/08/06 04:23:12;;;;;;;3.13;2.75;;;15.30;99.90;;;;;;5075560;28;20062;-66
2023/08/06 04:25:38;;;;;;;2.90;2.67;;;15.30;99.90;;;;;;5076176;28;20083;-66
2023/08/06 04:28:03;;;;;;;3.05;2.85;;;15.30;99.90;;;;;;5074294;28;20020;-66
2023/08/06 04:30:29;;;;;;;2.88;2.65;;;15.30;99.90;;;;;;5075599;28;20052;-66
2023/08/06 04:32:56;;;;;;;4.82;3.30;;;15.30;99.90;;;;;;5075418;28;20108;-66
2023/08/06 04:35:22;;;;;;;3.25;2.95;;;15.40;99.90;;;;;;5075470;28;20024;-66
2023/08/06 04:37:47;;;;;;;4.03;2.88;;;15.40;99.90;;;;;;5074448;28;20025;-66
2023/08/06 04:40:13;;;;;;;4.70;2.80;;;15.40;99.90;;;;;;5075295;28;20481;-66
2023/08/06 04:42:39;;;;;;;2.70;2.50;;;15.40;99.90;;;;;;5075325;28;20024;-65
2023/08/06 04:45:05;;;;;;;3.58;2.40;;;15.40;99.90;;;;;;5074927;28;20381;-65
2023/08/06 04:47:30;;;;;;;2.10;2.00;;;15.40;99.90;;;;;;5075456;28;20052;-65
2023/08/06 04:49:56;;;;;;;2.50;2.30;;;15.40;99.90;;;;;;5075111;28;20446;-65
2023/08/06 04:52:22;;;;;;;2.47;1.80;;;15.40;99.90;;;;;;5073722;28;20060;-66
2023/08/06 04:54:47;;;;;;;1.80;1.70;;;15.40;99.90;;;;;;5075165;28;20451;-66
2023/08/06 04:57:13;;;;;;;1.80;1.70;;;15.50;99.90;;;;;;5074702;28;20504;-65
2023/08/06 04:59:39;;;;;;;1.75;1.65;;;15.50;99.90;;;;;;5074810;28;20120;-65
2023/08/06 05:02:05;;;;;;;1.85;1.67;;;15.50;99.90;;;;;;5074865;28;20031;-65
2023/08/06 05:04:30;;;;;;;1.75;1.65;;;15.50;99.90;;;;;;5075278;28;20024;-65
2023/08/06 05:06:56;;;;;;;3.47;2.08;;;15.50;99.90;;;;;;5073877;28;20028;-66
2023/08/06 05:09:22;;;;;;;2.15;2.03;;;15.50;99.90;;;;;;5075015;28;20032;-65
2023/08/06 05:11:47;;;;;;;2.45;2.25;;;15.50;99.90;;;;;;5074335;28;20031;-65
2023/08/06 05:14:13;;;;;;;2.25;2.10;;;15.50;99.90;;;;;;5074357;28;20021;-65
2023/08/06 05:16:39;;;;;;;2.10;1.90;;;15.50;99.90;;;;;;5074599;28;20035;-65
2023/08/06 05:19:05;;;;;;;1.90;1.80;;;15.50;99.90;;;;;;5074219;28;20029;-65
2023/08/06 05:21:30;;;;;;;2.10;1.98;;;15.50;99.90;;;;;;5074056;28;20077;-66
2023/08/06 05:23:56;;;;;;;3.63;2.13;;;15.60;99.90;;;;;;5074580;28;20098;-65
2023/08/06 05:26:22;;;;;;;2.17;2.00;;;15.60;99.90;;;;;;5074392;28;20378;-65
2023/08/06 05:28:47;;;;;;;2.22;1.80;;;15.50;99.90;;;;;;5074102;28;20497;-65
2023/08/06 05:31:13;;;;;;;2.13;1.92;;;15.60;99.90;;;;;;5074584;28;20029;-65
2023/08/06 05:33:38;;;;;;;3.00;2.17;;;15.60;99.90;;;;;;5074292;28;20020;-65
2023/08/06 05:36:04;;;;;;;2.00;1.90;;;15.60;99.90;;;;;;5074264;28;20082;-65
2023/08/06 05:38:30;;;;;;;2.38;2.17;;;15.60;99.90;;;;;;5074208;28;20034;-66
2023/08/06 05:40:56;;;;;;;1.90;1.80;;;15.60;99.90;;;;;;5074080;28;20039;-66
2023/08/06 05:43:22;;;;;;;2.42;2.22;;;15.70;99.90;;;;;;5074443;28;20069;-66
2023/08/06 05:45:50;;;;;;;2.67;2.13;;;15.70;99.90;;;;;;5074131;28;20028;-66
2023/08/06 05:48:15;;;;;;;2.58;2.05;;;15.70;99.90;;;;;;5074040;28;20033;-66
2023/08/06 05:50:41;;;;;;;5.28;2.00;;;15.80;99.90;;;;;;5073850;28;20078;-66
2023/08/06 05:53:07;;;;;;;2.75;1.88;;;15.90;99.90;;;;;;5074026;28;20033;-66
2023/08/06 05:55:34;;;;;;;2.08;1.98;;;15.90;99.90;;;;;;5073943;28;20025;-66
2023/08/06 05:57:59;;;;;;;2.17;1.98;;;15.90;99.90;;;;;;5074194;28;20020;-66
2023/08/06 06:00:25;;;;;;;2.08;1.98;;;15.90;99.90;;;;;;5073779;28;20116;-61
2023/08/06 06:02:51;;;;;;;2.00;1.90;;;16.10;99.90;;;;;;5073603;28;20101;-62
2023/08/06 06:05:16;;;;;;;1.60;1.50;;;16.40;99.90;;;;;;5073998;28;20484;-61
2023/08/06 06:07:42;;;;;;;1.77;1.67;;;16.50;99.90;;;;;;5073791;28;20027;-62
2023/08/06 06:10:08;;;;;;;1.58;1.48;;;16.60;99.90;;;;;;5073506;28;20028;-62
2023/08/06 06:12:34;;;;;;;1.30;1.30;;;16.70;99.90;;;;;;5073796;28;20024;-62
2023/08/06 06:15:00;;;;;;;1.70;1.60;;;16.80;99.90;;;;;;5073759;28;20031;-63
2023/08/06 06:17:26;;;;;;;1.58;1.48;;;16.90;99.90;;;;;;5073934;28;20032;-61
2023/08/06 06:19:52;;;;;;;2.45;1.38;;;16.80;99.90;;;;;;5072337;28;20116;-61
2023/08/06 06:22:18;;;;;;;2.17;1.60;;;16.80;99.90;;;;;;5073305;28;20055;-61
2023/08/06 06:24:43;;;;;;;2.08;1.58;;;16.90;99.90;;;;;;5072177;28;20088;-61
2023/08/06 06:27:09;;;;;;;3.25;1.42;;;17.00;99.90;;;;;;5073662;28;20021;-61
2023/08/06 06:29:35;;;;;;;1.63;1.50;;;17.10;99.90;;;;;;5073576;28;20037;-62
2023/08/06 06:32:00;;;;;;;2.03;1.80;;;17.10;99.90;;;;;;5073893;28;20107;-61
2023/08/06 06:34:26;;;;;;;1.85;1.75;;;17.10;99.90;;;;;;5073556;28;20039;-61
2023/08/06 06:36:51;;;;;;;2.60;1.75;;;17.10;99.90;;;;;;5073543;28;20025;-61
2023/08/06 06:39:17;;;;;;;1.55;1.42;;;17.00;99.90;;;;;;5072175;28;20036;-63
2023/08/06 06:41:44;;;;;;;2.75;1.30;;;17.00;99.90;;;;;;5073259;28;20036;-62
2023/08/06 06:44:09;;;;;;;1.70;1.60;;;17.10;99.90;;;;;;5073020;28;20020;-62
2023/08/06 06:46:35;;;;;;;1.33;1.33;;;17.10;99.90;;;;;;5072197;28;20484;-62
2023/08/06 06:49:01;;;;;;;1.50;1.40;;;16.90;99.90;;;;;;5073356;28;20105;-62
2023/08/06 06:51:26;;;;;;;1.98;1.40;;;16.90;99.90;;;;;;5072154;28;20020;-63
2023/08/06 06:53:52;;;;;;;1.50;1.40;;;16.90;99.90;;;;;;5073500;28;20024;-63
2023/08/06 06:56:17;;;;;;;2.38;1.20;;;16.80;99.90;;;;;;5073354;28;20029;-63
2023/08/06 06:58:43;;;;;;;1.00;1.00;;;16.80;99.90;;;;;;5072054;28;20025;-66
2023/08/06 07:01:10;;;;;;;1.30;1.30;;;16.70;99.90;;;;;;5073364;28;20060;-66
2023/08/06 07:03:36;;;;;;;1.65;1.02;;;16.60;99.90;;;;;;5073493;28;20032;-66
2023/08/06 07:06:01;;;;;;;1.20;1.10;;;16.50;99.90;;;;;;5072989;28;20130;-66
2023/08/06 07:08:27;;;;;;;1.35;1.25;;;16.40;99.90;;;;;;5073453;28;20518;-66
2023/08/06 07:11:03;;;;;;;1.58;1.50;;;16.40;99.90;;;;;;5073285;28;20028;-65
2023/08/06 07:13:29;;;;;;;1.20;1.20;;;16.40;99.90;;;;;;5073525;28;20417;-66
2023/08/06 07:15:56;;;;;;;1.30;1.20;;;16.40;99.90;;;;;;5071530;28;20025;-66
2023/08/06 07:18:22;;;;;;;2.35;1.60;;;16.40;99.90;;;;;;5071811;28;20024;-66
2023/08/06 07:20:54;;;;;;;1.48;1.40;;;16.30;99.90;;;;;;5073287;28;20048;-66
2023/08/06 07:23:22;;;;;;;1.50;1.40;;;16.40;99.90;;;;;;5073129;28;20053;-66
2023/08/06 07:25:48;;;;;;;1.50;1.40;;;16.50;99.90;;;;;;5071750;28;20025;-65
2023/08/06 07:28:14;;;;;;;1.80;1.67;;;16.60;99.90;;;;;;5073031;28;20142;-65
2023/08/06 07:30:41;;;;;;;2.58;1.50;;;16.60;99.90;;;;;;5074748;28;20465;-65
2023/08/06 07:33:07;;;;;;;3.60;1.80;;;16.70;99.90;;;;;;5076597;28;20107;-65
2023/08/06 07:35:33;;;;;;;1.85;1.60;;;16.70;99.90;;;;;;5076256;28;20109;-65
2023/08/06 07:37:59;;;;;;;1.60;1.30;;;16.70;99.90;;;;;;5076452;28;20116;-65
2023/08/06 07:40:24;;;;;;;2.15;1.35;;;16.70;99.90;;;;;;5075123;28;20484;-65
2023/08/06 07:42:50;;;;;;;1.77;1.30;;;16.80;99.90;;;;;;5076419;28;20039;-65
2023/08/06 07:45:16;;;;;;;1.40;1.30;;;16.70;99.90;;;;;;5076603;28;20023;-65
2023/08/06 07:47:42;;;;;;;1.65;1.50;;;16.80;99.90;;;;;;5076057;28;20100;-65
2023/08/06 07:50:09;;;;;;;1.77;1.50;;;16.70;99.90;;;;;;5076279;28;20060;-65
2023/08/06 07:52:34;;;;;;;1.20;1.20;;;16.70;99.90;;;;;;5076290;28;20090;-66
2023/08/06 07:55:01;;;;;;;2.13;1.30;;;16.80;99.90;;;;;;5076231;28;20432;-65
2023/08/06 07:57:27;;;;;;;1.83;1.38;;;16.80;99.90;;;;;;5076182;28;20025;-65
2023/08/06 07:59:53;;;;;;;1.83;1.73;;;16.80;99.90;;;;;;5075912;28;20090;-65
2023/08/06 08:02:19;;;;;;;2.25;1.48;;;16.70;99.90;;;;;;5076360;28;20028;-77
2023/08/06 08:04:47;;;;;;;2.60;1.50;;;16.60;99.90;;;;;;5074753;28;20470;-65
2023/08/06 08:07:13;;;;;;;1.67;1.58;;;16.60;99.90;;;;;;5075650;28;20425;-65
2023/08/06 08:09:38;;;;;;;3.30;1.88;;;16.70;99.90;;;;;;5075644;28;20028;-65
2023/08/06 08:12:04;;;;;;;1.70;1.60;;;16.70;99.90;;;;;;5074737;28;20028;-65
2023/08/06 08:14:35;;;;;;;1.50;1.40;;;16.80;99.90;;;;;;5075962;28;20064;-65
2023/08/06 08:17:02;;;;;;;1.50;1.40;;;16.80;99.90;;;;;;5076100;28;20036;-65
2023/08/06 08:19:28;;;;;;;2.17;1.60;;;16.90;99.90;;;;;;5074397;28;20033;-65
2023/08/06 08:21:54;;;;;;;1.35;1.27;;;17.00;99.90;;;;;;5074272;28;20032;-65
2023/08/06 08:24:21;;;;;;;1.63;1.40;;;16.90;99.90;;;;;;5073776;28;20600;-65
2023/08/06 08:26:46;;;;;;;2.55;1.58;;;16.90;99.90;;;;;;5075545;28;20025;-65
2023/08/06 08:29:12;;;;;;;1.60;1.50;;;16.80;99.90;;;;;;5075234;28;20020;-65
2023/08/06 08:31:39;;;;;;;1.95;1.83;;;16.80;99.90;;;;;;5075265;28;20021;-65
2023/08/06 08:34:05;;;;;;;2.63;1.70;;;16.70;99.90;;;;;;5075463;28;20389;-65
2023/08/06 08:36:31;;;;;;;2.67;2.08;;;16.70;99.90;;;;;;5075038;28;20359;-65
2023/08/06 08:38:57;;;;;;;2.88;1.92;;;16.70;99.90;;;;;;5074034;28;20032;-65
2023/08/06 08:41:23;;;;;;;1.65;1.55;;;16.70;99.90;;;;;;5075045;28;20028;-65
2023/08/06 08:43:51;;;;;;;1.80;1.70;;;16.80;99.90;;;;;;5075244;28;20032;-65
2023/08/06 08:46:19;;;;;;;1.77;1.60;;;16.90;99.90;;;;;;5075283;28;20059;-65
2023/08/06 08:48:45;;;;;;;1.90;1.80;;;16.80;99.90;;;;;;5074146;28;20032;-65
2023/08/06 08:51:12;;;;;;;2.78;1.73;;;16.80;99.90;;;;;;5074887;28;20036;-65
2023/08/06 08:53:39;;;;;;;1.77;1.67;;;16.70;99.90;;;;;;5074993;28;20386;-65
2023/08/06 08:56:05;;;;;;;2.13;2.03;;;16.60;99.90;;;;;;5074627;28;20024;-65
2023/08/06 08:58:32;;;;;;;1.98;1.80;;;16.60;99.90;;;;;;5074930;28;20016;-65
2023/08/06 09:00:58;;;;;;;2.33;2.13;;;16.60;99.90;;;;;;5075122;28;20044;-65
2023/08/06 09:03:25;;;;;;;2.38;2.00;;;16.60;99.90;;;;;;5074732;28;20036;-65
2023/08/06 09:05:54;;;;;;;2.47;2.28;;;16.60;99.90;;;;;;5074528;28;20050;-65
2023/08/06 09:08:22;;;;;;;;;;;16.50;99.90;;;;;;5074812;28;20481;-65
2023/08/06 09:10:52;;;;;;;2.85;2.50;;;16.50;99.90;;;;;;5074714;28;19965;-66
2023/08/06 09:13:19;;;;;;;2.95;2.53;;;16.60;99.90;;;;;;5074581;28;20024;-65
2023/08/06 09:15:44;;;;;;;2.83;2.63;;;16.50;99.90;;;;;;5074645;28;20056;-65
2023/08/06 09:18:11;;;;;;;3.40;3.17;;;16.30;99.90;;;;;;5075087;28;20078;-65
2023/08/06 09:20:40;;;;;;;2.85;2.65;;;16.20;99.90;;;;;;5073810;28;20037;-65
2023/08/06 09:23:10;;;;;;;3.97;3.60;;;16.00;99.90;;;;;;5074507;28;20393;-67
2023/08/06 09:25:39;;;;;;;3.38;3.03;;;15.90;99.90;;;;;;5073209;28;20123;-65
2023/08/06 09:28:05;;;;;;;4.45;3.78;;;15.80;99.90;;;;;;5074591;28;20028;-65
2023/08/06 09:30:32;;;;;;;4.00;3.70;;;15.70;99.90;;;;;;5074572;28;20452;-65
2023/08/06 09:32:58;;;;;;;5.00;4.25;;;15.60;99.90;;;;;;5074327;28;20534;-65
2023/08/06 09:35:23;;;;;;;6.88;4.10;;;15.50;99.90;;;;;;5073956;28;20084;-65
2023/08/06 09:37:49;;;;;;;5.63;4.60;;;15.40;99.90;;;;;;5074324;28;20481;-65
2023/08/06 09:40:31;;;;;;;6.03;4.30;;;15.40;99.90;;;;;;5074074;28;20493;-65
2023/08/06 09:42:58;;;;;;;5.32;4.88;;;15.30;99.90;;;;;;5074136;28;20029;-65
2023/08/06 09:45:30;;;;;;;5.45;4.85;;;15.30;99.90;;;;;;5073835;28;20539;-65
2023/08/06 09:47:57;;;;;;;11.35;5.82;;;15.20;99.90;;;;;;5074393;28;20060;-66
2023/08/06 09:50:26;;;;;;;7.75;5.65;;;15.20;99.90;;;;;;5073940;28;20032;-66
2023/08/06 09:52:53;;;;;;;6.88;6.20;;;15.30;99.90;;;;;;5073324;28;20376;-66
2023/08/06 09:55:19;;;;;;;6.47;5.85;;;15.30;99.90;;;;;;5072597;28;20024;-65
2023/08/06 09:57:47;;;;;;;6.45;5.50;;;15.30;99.90;;;;;;5073872;28;20074;-66
2023/08/06 10:00:13;;;;;;;7.53;4.72;;;15.40;99.90;;;;;;5073700;28;20067;-68
2023/08/06 10:02:39;;;;;;;6.50;5.32;;;15.50;99.90;;;;;;5073798;28;20035;-69
2023/08/06 10:05:09;;;;;;;4.50;4.05;;;15.60;99.90;;;;;;5072798;28;20543;-70
2023/08/06 10:07:36;;;;;;;4.32;4.03;;;15.60;99.90;;;;;;5072460;28;20496;-70
2023/08/06 10:10:02;;;;;;;6.82;4.03;;;15.80;99.90;;;;;;5072404;28;20033;-70
2023/08/06 10:12:35;;;;;;;4.28;3.88;;;15.80;99.90;;;;;;5073501;28;20359;-70
2023/08/06 10:15:06;;;;;;;5.75;5.13;;;15.80;99.90;;;;;;5073650;28;20085;-70
2023/08/06 10:17:32;;;;;;;4.72;4.32;;;15.90;99.90;;;;;;5073782;28;20017;-70
2023/08/06 10:19:59;;;;;;;5.15;4.65;;;16.00;99.90;;;;;;5073280;28;20482;-70
2023/08/06 10:22:27;;;;;;;4.80;4.40;;;16.10;99.90;;;;;;5073383;28;20036;-70
2023/08/06 10:24:54;;;;;;;3.63;3.33;;;16.30;99.90;;;;;;5073475;28;20040;-70
2023/08/06 10:27:49;;;;;;;3.40;3.13;;;16.50;99.90;;;;;;5073477;28;20054;-70
2023/08/06 10:30:41;;;;;;;4.05;3.25;;;16.60;99.90;;;;;;5064388;28;20059;-73
2023/08/06 10:33:07;;;;;;;2.80;2.60;;;16.90;99.90;;;;;;5073291;28;20088;-73
2023/08/06 10:35:44;;;;;;;3.67;2.63;;;16.90;99.90;;;;;;5072178;28;20501;-64
2023/08/06 10:38:15;;;;;;;7.13;2.47;;;16.90;99.90;;;;;;5072465;28;20025;-61
2023/08/06 10:40:54;;;;;;;4.32;2.35;;;17.10;99.90;;;;;;5073366;28;20036;-61
2023/08/06 10:43:29;;;;;;;5.18;2.90;;;17.10;99.90;;;;;;5073246;28;20025;-61
2023/08/06 10:45:56;;;;;;;2.63;2.40;;;17.20;99.90;;;;;;5073550;28;20033;-61
2023/08/06 10:48:34;;;;;;;4.95;2.22;;;17.40;99.90;;;;;;5073118;28;20382;-61
2023/08/06 10:51:01;;;;;;;4.47;2.10;;;17.60;99.90;;;;;;5073368;28;20104;-61
2023/08/06 10:53:27;;;;;;;2.75;2.20;;;17.70;99.90;;;;;;5073363;28;20083;-63
2023/08/06 10:55:52;;;;;;;2.25;2.05;;;17.70;99.90;;;;;;5073072;28;20056;-63
2023/08/06 10:58:18;;;;;;;11.88;2.05;;;17.70;99.90;;;;;;5073361;28;20090;-64
2023/08/06 11:00:44;;;;;;;7.68;1.70;;;17.70;99.90;;;;;;5073018;28;20116;-63
2023/08/06 11:03:09;;;;;;;5.70;1.75;;;17.80;99.90;;;;;;5073481;28;20025;-64
2023/08/06 11:05:39;;;;;;;36.42;3.55;;;17.80;99.90;;;;;;5076381;28;20056;-63
2023/08/06 11:08:05;;;;;;;5.30;3.15;;;17.90;99.90;;;;;;5077224;28;20063;-63
2023/08/06 11:10:33;;;;;;;2.58;1.80;;;17.80;99.90;;;;;;5076927;28;20064;-67
2023/08/06 11:13:07;;;;;;;2.00;1.80;;;17.90;99.90;;;;;;5077063;28;20055;-63
2023/08/06 11:15:33;;;;;;;2.60;2.00;;;17.70;99.90;;;;;;5077147;28;20071;-64
2023/08/06 11:17:58;;;;;;;2.05;1.88;;;17.50;99.90;;;;;;5075740;28;20025;-64
2023/08/06 11:20:24;;;;;;;2.40;2.20;;;17.40;99.90;;;;;;5076736;28;20079;-62
2023/08/06 11:22:50;;;;;;;6.55;1.88;;;17.40;99.90;;;;;;5076389;28;20032;-60
2023/08/06 11:25:16;;;;;;;1.90;1.80;;;17.20;99.90;;;;;;5076786;28;20067;-59
2023/08/06 11:27:41;;;;;;;2.35;2.00;;;17.00;99.90;;;;;;5076669;28;20056;-66
2023/08/06 11:30:10;;;;;;;1.95;1.85;;;17.00;99.90;;;;;;5075880;28;20484;-58
2023/08/06 11:32:46;;;;;;;5.82;2.05;;;16.90;99.90;;;;;;5076684;28;20032;-59
2023/08/06 11:35:12;;;;;;;2.85;1.90;;;16.70;99.90;;;;;;5076622;28;20056;-65
2023/08/06 11:37:43;;;;;;;2.80;2.05;;;16.50;99.90;;;;;;5076516;28;20102;-62
2023/08/06 11:40:11;;;;;;;2.65;2.45;;;16.40;99.90;;;;;;5076232;28;20036;-58
2023/08/06 11:42:37;;;;;;;3.78;2.30;;;16.40;99.90;;;;;;5076333;28;20032;-59
2023/08/06 11:45:04;;;;;;;2.08;1.98;;;16.40;99.90;;;;;;5076406;28;20025;-58
2023/08/06 11:47:30;;;;;;;2.47;2.28;;;16.30;99.90;;;;;;5076377;28;20024;-62
2023/08/06 11:49:56;;;;;;;3.25;2.50;;;16.20;99.90;;;;;;5076087;28;20025;-59
2023/08/06 11:52:25;;;;;;;2.88;2.50;;;16.10;99.90;;;;;;5076047;28;20510;-59
2023/08/06 11:55:11;;;;;;;2.83;2.55;;;16.00;99.90;;;;;;5076537;28;20090;-59
2023/08/06 11:57:44;;;;;;;2.97;2.72;;;15.90;99.90;;;;;;5074671;28;20034;-58
2023/08/06 12:00:12;;;;;;;4.80;2.85;;;15.90;99.90;;;;;;5076061;28;20078;-58
2023/08/06 12:02:42;;;;;;;5.03;2.78;;;15.90;99.90;;;;;;5076043;28;20029;-58
2023/08/06 12:05:18;;;;;;;5.18;2.58;;;15.90;99.90;;;;;;5076312;28;20032;-58
2023/08/06 12:07:53;;;;;;;3.00;2.70;;;15.90;99.90;;;;;;5075881;28;20039;-58
2023/08/06 12:10:20;;;;;;;2.90;2.42;;;16.00;99.90;;;;;;5075993;28;20029;-58
2023/08/06 12:12:46;;;;;;;2.53;2.08;;;16.10;99.90;;;;;;5075848;28;20390;-58
2023/08/06 12:15:12;;;;;;;2.50;2.30;;;16.20;99.90;;;;;;5075230;28;20024;-58
2023/08/06 12:17:38;;;;;;;2.38;2.17;;;16.30;99.90;;;;;;5075756;28;20112;-58
2023/08/06 12:20:05;;;;;;;2.72;2.28;;;16.50;99.90;;;;;;5075554;28;20032;-58
2023/08/06 12:22:34;;;;;;;2.75;2.30;;;16.50;99.90;;;;;;5074397;28;20043;-58
2023/08/06 12:25:01;;;;;;;;;;;16.60;99.90;;;;;;5076257;28;20063;-59
2023/08/06 12:27:26;;;;;;;4.28;2.30;;;16.60;99.90;;;;;;5075596;28;19939;-58
2023/08/06 12:29:52;;;;;;;3.60;2.30;;;16.60;99.90;;;;;;5075291;28;20437;-58
2023/08/06 12:32:19;;;;;;;2.70;2.35;;;16.70;99.90;;;;;;5074902;28;20474;-58
2023/08/06 12:34:44;;;;;;;2.50;2.22;;;16.70;99.90;;;;;;5075565;28;20158;-58
2023/08/06 12:37:10;;;;;;;5.05;2.78;;;16.90;99.90;;;;;;5075461;28;20082;-58
2023/08/06 12:39:37;;;;;;;4.10;2.50;;;16.90;99.90;;;;;;5074904;28;20044;-59
2023/08/06 12:42:05;;;;;;;5.53;2.40;;;16.80;99.90;;;;;;5075277;28;20489;-68
2023/08/06 12:44:31;;;;;;;3.65;2.70;;;16.90;99.90;;;;;;5074918;28;20032;-69
2023/08/06 12:46:57;;;;;;;5.30;2.53;;;16.90;99.90;;;;;;5075002;28;20035;-64